createdAt,value
2019-02-04T00:00:00.660Z,112.94
2019-02-04T00:03:05.979Z,112.83
2019-02-04T00:06:16.048Z,113.13
2019-02-04T00:09:24.979Z,113.17
2019-02-04T00:12:28.124Z,113.18
2019-02-04T00:15:30.989Z,113.26
2019-02-04T00:18:33.705Z,113.25
2019-02-04T00:21:36.626Z,113.38
2019-02-04T00:24:39.359Z,113.42
2019-02-04T00:27:42.149Z,113.63
2019-02-04T00:30:45.084Z,113.53
2019-02-04T00:33:50.662Z,113.46
2019-02-04T00:36:58.753Z,113.66
2019-02-04T00:40:06.157Z,113.61
2019-02-04T00:43:09.041Z,113.60
2019-02-04T00:46:11.749Z,113.68
2019-02-04T00:49:14.430Z,114.02
2019-02-04T00:52:19.436Z,113.90
2019-02-04T00:55:22.095Z,113.91
2019-02-04T00:58:24.719Z,113.92
2019-02-04T01:01:27.410Z,114.01
2019-02-04T01:04:29.980Z,113.92
2019-02-04T01:07:32.584Z,113.99
2019-02-04T01:10:35.217Z,114.05
2019-02-04T01:13:37.936Z,114.24
2019-02-04T01:16:40.888Z,114.46
2019-02-04T01:19:43.651Z,114.52
2019-02-04T01:22:46.383Z,114.50
2019-02-04T01:25:48.969Z,114.75
2019-02-04T01:28:52.730Z,114.56
2019-02-04T01:31:55.420Z,114.72
2019-02-04T01:34:58.324Z,114.98
2019-02-04T01:38:01.043Z,115.05
2019-02-04T01:41:03.928Z,115.07
2019-02-04T01:44:06.643Z,115.43
2019-02-04T01:47:14.744Z,115.38
2019-02-04T01:50:15.902Z,115.52
2019-02-04T01:53:18.535Z,115.57
2019-02-04T01:56:21.180Z,115.53
2019-02-04T01:59:23.818Z,115.59
2019-02-04T02:02:26.511Z,115.69
2019-02-04T02:05:29.253Z,115.69
2019-02-04T02:08:31.819Z,115.78
2019-02-04T02:11:35.495Z,115.79
2019-02-04T02:14:38.245Z,116.01
2019-02-04T02:17:40.850Z,116.08
2019-02-04T02:20:43.533Z,116.04
2019-02-04T02:23:46.216Z,115.95
2019-02-04T02:26:48.865Z,115.94
2019-02-04T02:29:52.904Z,116.06
2019-02-04T02:32:55.609Z,115.99
2019-02-04T02:35:58.310Z,115.96
2019-02-04T02:39:01.426Z,115.94
2019-02-04T02:42:04.021Z,115.95
2019-02-04T02:45:07.289Z,115.89
2019-02-04T02:48:10.329Z,116.03
2019-02-04T02:51:12.995Z,115.94
2019-02-04T02:54:15.613Z,115.75
2019-02-04T02:57:18.575Z,115.68
2019-02-04T03:00:26.085Z,115.64
2019-02-04T03:03:28.733Z,115.53
2019-02-04T03:06:31.717Z,115.40
2019-02-04T03:09:34.410Z,115.24
2019-02-04T03:12:37.074Z,115.24
2019-02-04T03:15:40.176Z,115.14
2019-02-04T03:18:42.763Z,115.00
2019-02-04T03:21:45.390Z,115.02
2019-02-04T03:24:48.399Z,114.97
2019-02-04T03:27:51.080Z,115.06
2019-02-04T03:30:53.642Z,114.95
2019-02-04T03:33:56.675Z,114.98
2019-02-04T03:36:59.375Z,115.05
2019-02-04T03:40:02.191Z,114.95
2019-02-04T03:43:04.887Z,114.84
2019-02-04T03:46:07.684Z,114.72
2019-02-04T03:49:10.365Z,114.94
2019-02-04T03:52:13.143Z,114.94
2019-02-04T03:55:16.884Z,114.78
2019-02-04T03:58:19.634Z,114.82
2019-02-04T04:01:22.270Z,114.82
2019-02-04T04:04:24.931Z,114.75
2019-02-04T04:07:27.583Z,114.68
2019-02-04T04:10:30.373Z,114.46
2019-02-04T04:13:33.099Z,114.37
2019-02-04T04:16:35.796Z,114.30
2019-02-04T04:19:38.538Z,114.07
2019-02-04T04:22:41.283Z,114.20
2019-02-04T04:25:45.038Z,114.15
2019-02-04T04:28:47.650Z,114.20
2019-02-04T04:31:50.353Z,114.06
2019-02-04T04:34:53.088Z,114.09
2019-02-04T04:37:55.781Z,114.06
2019-02-04T04:40:58.526Z,114.20
2019-02-04T04:44:01.208Z,114.25
2019-02-04T04:47:03.911Z,114.43
2019-02-04T04:50:07.470Z,114.53
2019-02-04T04:53:10.098Z,114.53
2019-02-04T04:56:12.735Z,114.53
2019-02-04T04:59:15.433Z,114.53
2019-02-04T05:02:18.140Z,114.62
2019-02-04T05:05:20.814Z,114.69
2019-02-04T05:08:23.494Z,114.72
2019-02-04T05:11:26.210Z,114.74
2019-02-04T05:14:29.934Z,114.84
2019-02-04T05:17:32.600Z,114.77
2019-02-04T05:20:35.340Z,114.88
2019-02-04T05:23:38.085Z,114.79
2019-02-04T05:26:40.640Z,114.68
2019-02-04T05:29:43.322Z,114.68
2019-02-04T05:32:46.066Z,114.61
2019-02-04T05:35:48.850Z,114.55
2019-02-04T05:38:51.635Z,114.55
2019-02-04T05:41:54.373Z,114.47
2019-02-04T05:44:57.900Z,114.59
2019-02-04T05:48:00.615Z,114.71
2019-02-04T05:51:03.388Z,114.55
2019-02-04T05:54:06.143Z,114.60
2019-02-04T05:57:09.090Z,114.60
2019-02-04T06:00:15.408Z,114.55
2019-02-04T06:03:18.260Z,114.43
2019-02-04T06:06:20.885Z,114.32
2019-02-04T06:09:23.545Z,114.30
2019-02-04T06:12:26.364Z,113.93
2019-02-04T06:15:29.377Z,113.95
2019-02-04T06:18:32.010Z,113.90
2019-02-04T06:21:34.823Z,113.59
2019-02-04T06:24:38.258Z,113.35
2019-02-04T06:27:40.936Z,113.11
2019-02-04T06:30:43.539Z,113.07
2019-02-04T06:33:46.693Z,112.84
2019-02-04T06:36:49.441Z,112.62
2019-02-04T06:39:52.160Z,112.28
2019-02-04T06:42:55.243Z,112.22
2019-02-04T06:45:57.884Z,112.12
2019-02-04T06:49:11.653Z,111.58
2019-02-04T06:52:05.218Z,111.08
2019-02-04T06:55:13.162Z,110.78
2019-02-04T06:58:15.888Z,110.57
2019-02-04T07:01:18.784Z,110.21
2019-02-04T07:04:21.344Z,110.25
2019-02-04T07:07:24.130Z,110.46
2019-02-04T07:10:27.355Z,110.45
2019-02-04T07:13:30.118Z,110.39
2019-02-04T07:16:32.796Z,110.06
2019-02-04T07:19:35.419Z,109.66
2019-02-04T07:22:38.210Z,109.41
2019-02-04T07:25:40.870Z,109.36
2019-02-04T07:28:43.499Z,108.51
2019-02-04T07:31:46.176Z,108.82
2019-02-04T07:34:48.888Z,108.28
2019-02-04T07:37:51.525Z,108.10
2019-02-04T07:40:54.282Z,108.38
2019-02-04T07:43:56.918Z,108.48
2019-02-04T07:46:59.582Z,108.54
2019-02-04T07:50:02.338Z,108.37
2019-02-04T07:53:05.982Z,108.44
2019-02-04T07:56:08.758Z,108.09
2019-02-04T07:59:11.550Z,107.85
2019-02-04T08:02:14.187Z,107.99
2019-02-04T08:05:16.863Z,107.12
2019-02-04T08:08:19.539Z,107.35
2019-02-04T08:11:22.289Z,106.54
2019-02-04T08:14:24.984Z,106.32
2019-02-04T08:17:27.638Z,106.14
2019-02-04T08:20:30.600Z,105.93
2019-02-04T08:23:33.317Z,105.74
2019-02-04T08:26:36.007Z,105.09
2019-02-04T08:29:39.058Z,105.58
2019-02-04T08:32:41.753Z,104.19
2019-02-04T08:35:44.427Z,104.52
2019-02-04T08:38:47.292Z,104.61
2019-02-04T08:41:49.965Z,104.36
2019-02-04T08:44:52.688Z,102.65
2019-02-04T08:47:55.400Z,101.31
2019-02-04T08:50:58.029Z,101.48
2019-02-04T08:54:00.768Z,101.33
2019-02-04T08:57:03.447Z,101.05
2019-02-04T09:00:09.702Z,100.33
2019-02-04T09:03:12.292Z,99.38
2019-02-04T09:06:15.068Z,99.74
2019-02-04T09:09:17.721Z,99.18
2019-02-04T09:12:20.699Z,97.51
2019-02-04T09:15:23.318Z,95.83
2019-02-04T09:18:26.027Z,96.48
2019-02-04T09:21:29.019Z,95.83
2019-02-04T09:24:31.808Z,94.62
2019-02-04T09:27:34.483Z,94.08
2019-02-04T09:30:37.079Z,92.96
2019-02-04T09:33:42.276Z,92.93
2019-02-04T09:36:46.502Z,92.23
2019-02-04T09:39:49.271Z,92.26
2019-02-04T09:42:52.083Z,91.52
2019-02-04T09:45:54.763Z,88.89
2019-02-04T09:48:57.742Z,89.78
2019-02-04T09:52:00.642Z,88.27
2019-02-04T09:55:07.347Z,88.55
2019-02-04T09:58:10.188Z,86.97
2019-02-04T10:01:13.037Z,85.75
2019-02-04T10:04:15.811Z,84.64
2019-02-04T10:07:18.582Z,84.71
2019-02-04T10:10:23.383Z,83.94
2019-02-04T10:13:26.117Z,83.36
2019-02-04T10:16:28.848Z,84.28
2019-02-04T10:19:31.537Z,82.83
2019-02-04T10:22:34.232Z,81.66
2019-02-04T10:25:38.809Z,80.33
2019-02-04T10:28:41.546Z,80.14
2019-02-04T10:31:44.240Z,79.90
2019-02-04T10:34:48.298Z,80.86
2019-02-04T10:37:51.196Z,79.71
2019-02-04T10:40:54.033Z,79.38
2019-02-04T10:43:57.026Z,78.94
2019-02-04T10:47:00.805Z,77.99
2019-02-04T10:50:05.398Z,79.11
2019-02-04T10:53:19.387Z,77.97
2019-02-04T10:56:22.125Z,76.53
2019-02-04T10:59:24.916Z,76.70
2019-02-04T11:02:28.538Z,77.26
2019-02-04T11:05:33.199Z,77.76
2019-02-04T11:08:36.158Z,77.85
2019-02-04T11:11:39.525Z,77.71
2019-02-04T11:14:44.259Z,76.33
2019-02-04T11:17:47.334Z,76.79
2019-02-04T11:20:58.210Z,77.89
2019-02-04T11:23:56.774Z,76.61
2019-02-04T11:26:59.464Z,75.97
2019-02-04T11:30:04.312Z,77.22
2019-02-04T11:33:07.588Z,76.85
2019-02-04T11:36:10.380Z,75.78
2019-02-04T11:39:13.302Z,77.13
2019-02-04T11:42:15.998Z,77.07
2019-02-04T11:45:18.802Z,76.52
2019-02-04T11:48:21.788Z,76.42
2019-02-04T11:51:24.522Z,75.43
2019-02-04T11:54:27.264Z,75.78
2019-02-04T11:57:30.460Z,74.77
2019-02-04T12:00:36.378Z,74.80
2019-02-04T12:03:39.298Z,74.34
2019-02-04T12:06:42.424Z,73.83
2019-02-04T12:09:45.143Z,73.81
2019-02-04T12:12:47.824Z,73.12
2019-02-04T12:15:51.494Z,73.95
2019-02-04T12:18:54.292Z,73.30
2019-02-04T12:21:56.838Z,72.34
2019-02-04T12:24:59.553Z,73.62
2019-02-04T12:28:02.098Z,73.03
2019-02-04T12:31:04.913Z,72.21
2019-02-04T12:34:07.752Z,73.55
2019-02-04T12:37:10.585Z,72.79
2019-02-04T12:40:13.964Z,73.14
2019-02-04T12:43:16.576Z,72.53
2019-02-04T12:46:19.317Z,73.36
2019-02-04T12:49:23.843Z,73.32
2019-02-04T12:52:26.521Z,73.06
2019-02-04T12:55:29.456Z,73.47
2019-02-04T12:58:32.163Z,73.22
2019-02-04T13:01:34.800Z,72.77
2019-02-04T13:04:37.613Z,72.69
2019-02-04T13:07:40.292Z,72.86
2019-02-04T13:10:50.003Z,71.66
2019-02-04T13:13:54.504Z,72.43
2019-02-04T13:16:57.139Z,72.69
2019-02-04T13:20:00.110Z,72.03
2019-02-04T13:23:04.152Z,71.99
2019-02-04T13:26:06.894Z,72.87
2019-02-04T13:29:09.653Z,71.40
2019-02-04T13:32:30.386Z,73.03
2019-02-04T13:35:36.492Z,71.76
2019-02-04T13:38:45.919Z,71.55
2019-02-04T13:41:48.560Z,71.66
2019-02-04T13:44:51.338Z,71.96
2019-02-04T13:47:54.118Z,72.24
2019-02-04T13:50:56.807Z,71.53
2019-02-04T13:53:59.784Z,72.32
2019-02-04T13:57:03.679Z,71.84
2019-02-04T14:00:09.807Z,72.35
2019-02-04T14:03:12.718Z,72.77
2019-02-04T14:06:15.412Z,72.09
2019-02-04T14:09:19.133Z,72.05
2019-02-04T14:12:21.787Z,73.66
2019-02-04T14:15:24.722Z,72.81
2019-02-04T14:18:27.779Z,71.57
2019-02-04T14:21:30.495Z,71.02
2019-02-04T14:24:33.237Z,71.60
2019-02-04T14:27:35.947Z,71.92
2019-02-04T14:30:38.767Z,71.95
2019-02-04T14:33:41.542Z,72.50
2019-02-04T14:36:44.237Z,71.77
2019-02-04T14:39:46.980Z,72.12
2019-02-04T14:42:53.248Z,72.55
2019-02-04T14:46:25.411Z,73.52
2019-02-04T14:50:01.254Z,73.87
2019-02-04T14:53:35.612Z,73.91
2019-02-04T14:57:01.278Z,73.21
2019-02-04T15:00:36.193Z,72.72
2019-02-04T15:03:46.901Z,73.05
2019-02-04T15:07:25.781Z,71.85
2019-02-04T15:10:58.517Z,72.46
2019-02-04T15:14:45.829Z,72.53
2019-02-04T15:18:33.341Z,71.50
2019-02-04T15:22:07.789Z,71.26
2019-02-04T15:25:22.396Z,73.06
2019-02-04T15:29:16.170Z,71.88
2019-02-04T15:33:12.831Z,72.24
2019-02-04T15:37:03.022Z,71.64
2019-02-04T15:40:33.303Z,72.40
2019-02-04T15:44:03.719Z,73.02
2019-02-04T15:47:28.559Z,71.89
2019-02-04T15:51:01.258Z,73.32
2019-02-04T15:54:06.253Z,72.01
2019-02-04T15:57:09.031Z,73.04
2019-02-04T16:00:13.132Z,72.14
2019-02-04T16:03:15.891Z,72.26
2019-02-04T16:06:18.991Z,72.04
2019-02-04T16:09:23.269Z,72.53
2019-02-04T16:12:26.001Z,72.42
2019-02-04T16:15:28.773Z,71.97
2019-02-04T16:18:31.958Z,72.07
2019-02-04T16:21:34.806Z,72.44
2019-02-04T16:24:37.777Z,72.14
2019-02-04T16:27:40.474Z,72.82
2019-02-04T16:30:43.167Z,72.72
2019-02-04T16:33:45.947Z,72.85
2019-02-04T16:36:48.618Z,72.94
2019-02-04T16:39:51.384Z,74.84
2019-02-04T16:42:54.256Z,73.25
2019-02-04T16:45:57.611Z,74.10
2019-02-04T16:49:00.475Z,75.30
2019-02-04T16:52:03.246Z,73.52
2019-02-04T16:55:06.183Z,74.62
2019-02-04T16:58:08.925Z,74.58
2019-02-04T17:01:13.661Z,72.66
2019-02-04T17:04:16.081Z,70.21
2019-02-04T17:07:18.797Z,71.35
2019-02-04T17:10:21.971Z,71.24
2019-02-04T17:13:25.737Z,71.21
2019-02-04T17:16:28.404Z,71.66
2019-02-04T17:19:31.241Z,70.72
2019-02-04T17:22:33.873Z,69.92
2019-02-04T17:25:36.524Z,70.69
2019-02-04T17:28:39.536Z,69.93
2019-02-04T17:31:42.229Z,70.35
2019-02-04T17:34:44.967Z,70.02
2019-02-04T17:37:47.976Z,70.99
2019-02-04T17:40:52.966Z,71.12
2019-02-04T17:43:55.698Z,70.78
2019-02-04T17:47:00.706Z,70.47
2019-02-04T17:50:06.644Z,69.93
2019-02-04T17:53:11.483Z,70.02
2019-02-04T17:56:14.337Z,70.57
2019-02-04T17:59:17.028Z,70.10
2019-02-04T18:02:19.747Z,70.41
2019-02-04T18:05:23.742Z,70.14
2019-02-04T18:08:26.482Z,69.89
2019-02-04T18:11:29.267Z,69.99
2019-02-04T18:14:32.182Z,70.05
2019-02-04T18:17:34.898Z,70.05
2019-02-04T18:20:37.692Z,69.95
2019-02-04T18:23:45.954Z,69.44
2019-02-04T18:26:45.427Z,70.85
2019-02-04T18:29:48.117Z,70.61
2019-02-04T18:32:51.213Z,69.89
2019-02-04T18:35:54.039Z,70.08
2019-02-04T18:38:56.778Z,69.20
2019-02-04T18:41:59.541Z,67.93
2019-02-04T18:45:02.680Z,67.68
2019-02-04T18:48:06.532Z,68.56
2019-02-04T18:51:09.558Z,67.86
2019-02-04T18:54:12.607Z,69.79
2019-02-04T18:57:15.330Z,69.18
2019-02-04T19:00:20.816Z,68.80
2019-02-04T19:03:23.631Z,69.18
2019-02-04T19:06:26.312Z,68.02
2019-02-04T19:09:29.022Z,65.96
2019-02-04T19:12:31.772Z,67.51
2019-02-04T19:15:34.496Z,67.60
2019-02-04T19:18:37.418Z,66.76
2019-02-04T19:21:40.227Z,66.32
2019-02-04T19:24:44.679Z,66.55
2019-02-04T19:27:48.032Z,66.61
2019-02-04T19:30:58.438Z,68.50
2019-02-04T19:34:01.229Z,67.86
2019-02-04T19:37:03.903Z,67.58
2019-02-04T19:40:07.315Z,67.85
2019-02-04T19:43:10.087Z,68.60
2019-02-04T19:46:12.832Z,67.26
2019-02-04T19:49:15.573Z,68.01
2019-02-04T19:52:18.297Z,67.75
2019-02-04T19:55:21.600Z,67.44
2019-02-04T19:58:24.275Z,67.46
2019-02-04T20:01:27.197Z,67.32
2019-02-04T20:04:30.072Z,69.04
2019-02-04T20:07:32.797Z,69.60
2019-02-04T20:10:35.659Z,69.01
2019-02-04T20:13:38.385Z,68.79
2019-02-04T20:16:41.183Z,68.61
2019-02-04T20:19:43.863Z,68.44
2019-02-04T20:22:48.464Z,69.41
2019-02-04T20:25:51.136Z,70.48
2019-02-04T20:28:53.905Z,69.31
2019-02-04T20:31:56.742Z,68.88
2019-02-04T20:34:59.561Z,68.71
2019-02-04T20:38:02.385Z,69.38
2019-02-04T20:41:05.177Z,69.33
2019-02-04T20:44:07.840Z,70.43
2019-02-04T20:47:10.759Z,69.93
2019-02-04T20:50:17.156Z,69.92
2019-02-04T20:53:19.873Z,70.28
2019-02-04T20:56:22.709Z,69.37
2019-02-04T20:59:25.357Z,70.19
2019-02-04T21:02:27.977Z,69.63
2019-02-04T21:05:31.118Z,70.36
2019-02-04T21:08:33.826Z,70.27
2019-02-04T21:11:36.611Z,70.19
2019-02-04T21:14:39.626Z,70.91
2019-02-04T21:17:42.446Z,70.01
2019-02-04T21:20:45.035Z,69.95
2019-02-04T21:23:48.413Z,70.45
2019-02-04T21:26:53.200Z,70.45
2019-02-04T21:30:01.802Z,70.02
2019-02-04T21:33:05.332Z,70.18
2019-02-04T21:36:08.021Z,71.07
2019-02-04T21:39:10.747Z,70.85
2019-02-04T21:42:13.732Z,71.05
2019-02-04T21:45:18.077Z,70.59
2019-02-04T21:48:21.895Z,71.74
2019-02-04T21:51:25.288Z,71.28
2019-02-04T21:54:28.157Z,71.93
2019-02-04T21:57:30.961Z,71.43
2019-02-04T22:00:35.833Z,72.44
2019-02-04T22:03:38.614Z,71.90
2019-02-04T22:06:43.197Z,72.08
2019-02-04T22:09:45.920Z,72.58
2019-02-04T22:12:51.610Z,73.10
2019-02-04T22:15:54.434Z,71.82
2019-02-04T22:18:59.128Z,72.90
2019-02-04T22:22:02.029Z,73.10
2019-02-04T22:25:07.042Z,73.63
2019-02-04T22:28:10.250Z,72.98
2019-02-04T22:31:12.966Z,74.04
2019-02-04T22:34:17.716Z,74.23
2019-02-04T22:37:21.066Z,73.71
2019-02-04T22:40:29.700Z,74.19
2019-02-04T22:43:33.820Z,74.51
2019-02-04T22:46:36.826Z,74.39
2019-02-04T22:49:39.574Z,74.46
2019-02-04T22:52:42.081Z,75.05
2019-02-04T22:55:44.691Z,74.33
2019-02-04T22:58:47.310Z,74.62
2019-02-04T23:01:52.705Z,75.30
2019-02-04T23:04:55.365Z,75.18
2019-02-04T23:07:58.077Z,75.79
2019-02-04T23:11:00.742Z,75.84
2019-02-04T23:14:05.801Z,75.62
2019-02-04T23:17:08.465Z,76.45
2019-02-04T23:20:11.279Z,76.95
2019-02-04T23:23:14.082Z,76.13
2019-02-04T23:26:16.744Z,76.33
2019-02-04T23:29:21.021Z,76.05
2019-02-04T23:32:23.665Z,76.44
2019-02-04T23:35:26.405Z,76.36
2019-02-04T23:38:29.124Z,76.62
2019-02-04T23:41:31.812Z,76.91
2019-02-04T23:44:34.367Z,77.05
2019-02-04T23:47:37.063Z,77.18
2019-02-04T23:50:39.689Z,77.22
2019-02-04T23:53:42.678Z,77.48
2019-02-04T23:56:45.357Z,78.83
2019-02-04T23:59:47.952Z,78.59
